Time;durP1;ratioP1;P1;durP2;ratioP2;P2;SDS_P1;SDS_P2;PMS_P1;PMS_P2;Temp;Humidity;BMP_temperature;BMP_pressure;BME280_temperature;BME280_humidity;BME280_pressure;Samples;Min_cycle;Max_cycle;Signal;HPM_P1;HPM_P2
2022/05/03 00:00:49;;;;;;;16.23;14.63;;;8.60;89.50;;;;;;5098465;28;20483;-72
2022/05/03 00:03:23;;;;;;;15.77;14.07;;;8.60;89.90;;;;;;5085161;28;20516;-71
2022/05/03 00:05:57;;;;;;;16.57;14.20;;;8.60;89.40;;;;;;5069642;28;20533;-72
2022/05/03 00:08:33;;;;;;;17.27;15.47;;;8.60;88.40;;;;;;5090836;28;20482;-73
2022/05/03 00:11:08;;;;;;;19.50;15.77;;;8.70;88.30;;;;;;5087584;28;20480;-72
2022/05/03 00:13:43;;;;;;;17.50;13.80;;;8.60;88.70;;;;;;5080523;28;20477;-73
2022/05/03 00:16:11;;;;;;;17.37;14.57;;;8.60;88.60;;;;;;5093588;28;20579;-73
2022/05/03 00:18:38;;;;;;;14.40;12.97;;;8.50;88.60;;;;;;5092133;28;20486;-73
2022/05/03 00:21:05;;;;;;;17.57;14.10;;;8.60;87.50;;;;;;5090094;28;20512;-72
2022/05/03 00:23:32;;;;;;;19.40;13.80;;;8.60;87.10;;;;;;5083368;28;20874;-73
2022/05/03 00:26:00;;;;;;;15.90;14.30;;;8.60;86.90;;;;;;5092629;28;20518;-72
2022/05/03 00:28:27;;;;;;;19.00;15.87;;;9.00;88.60;;;;;;5088065;28;20477;-73
2022/05/03 00:30:59;;;;;;;16.47;14.23;;;8.40;88.90;;;;;;5094104;28;20486;-73
2022/05/03 00:33:28;;;;;;;17.50;14.80;;;8.30;89.70;;;;;;5079751;28;20491;-72
2022/05/03 00:35:55;;;;;;;18.10;15.00;;;8.20;90.10;;;;;;5091371;28;20930;-72
2022/05/03 00:38:21;;;;;;;17.20;15.43;;;8.30;89.90;;;;;;5080754;28;20489;-72
2022/05/03 00:40:53;;;;;;;17.30;14.57;;;8.30;89.50;;;;;;5090852;28;20489;-72
2022/05/03 00:43:24;;;;;;;16.73;14.47;;;8.30;89.10;;;;;;5087978;28;20481;-72
2022/05/03 00:46:02;;;;;;;14.97;13.37;;;8.30;88.40;;;;;;5083097;28;20571;-73
2022/05/03 00:48:44;;;;;;;16.87;14.10;;;8.30;88.00;;;;;;5089417;28;20488;-72
2022/05/03 00:51:17;;;;;;;18.50;15.23;;;8.30;87.50;;;;;;5056520;28;21003;-72
2022/05/03 00:53:57;;;;;;;18.83;14.50;;;8.40;87.70;;;;;;5090059;28;20483;-73
2022/05/03 00:56:40;;;;;;;18.93;13.60;;;8.40;87.60;;;;;;5097294;28;20480;-72
2022/05/03 00:59:18;;;;;;;13.27;11.93;;;8.40;87.20;;;;;;5081836;28;20496;-73
2022/05/03 01:01:55;;;;;;;14.33;12.83;;;8.40;87.60;;;;;;5082058;28;20824;-72
2022/05/03 01:04:26;;;;;;;18.97;14.07;;;8.30;88.30;;;;;;5095176;28;20480;-72
2022/05/03 01:06:56;;;;;;;16.00;14.47;;;8.30;88.30;;;;;;5095499;28;20482;-73
2022/05/03 01:09:32;;;;;;;14.53;12.33;;;8.20;88.60;;;;;;5098578;28;20515;-73
2022/05/03 01:12:21;;;;;;;17.93;14.07;;;8.20;88.10;;;;;;5088028;28;21012;-72
2022/05/03 01:15:05;;;;;;;14.37;12.70;;;8.10;88.10;;;;;;5087669;28;20477;-72
2022/05/03 01:17:42;;;;;;;17.40;14.03;;;8.10;88.10;;;;;;5082798;28;20474;-72
2022/05/03 01:20:11;;;;;;;14.33;12.90;;;8.00;87.80;;;;;;5089956;28;20562;-73
2022/05/03 01:23:11;;;;;;;19.40;15.07;;;8.10;87.90;;;;;;5083999;28;20630;-72
2022/05/03 01:26:08;;;;;;;14.83;13.30;;;7.80;90.10;;;;;;5089475;28;21063;-73
2022/05/03 01:28:55;;;;;;;17.97;14.53;;;7.80;90.00;;;;;;5088482;28;20550;-72
2022/05/03 01:31:23;;;;;;;16.47;14.50;;;7.80;89.50;;;;;;5085113;28;20481;-72
2022/05/03 01:33:51;;;;;;;15.57;13.57;;;7.70;89.30;;;;;;5090905;28;20896;-72
2022/05/03 01:36:29;;;;;;;17.43;13.90;;;7.70;89.60;;;;;;5093941;28;20940;-72
2022/05/03 01:39:02;;;;;;;21.47;15.37;;;7.70;89.30;;;;;;5094761;28;20484;-74
2022/05/03 01:41:43;;;;;;;18.60;15.33;;;7.80;89.10;;;;;;5085864;28;20965;-72
2022/05/03 01:44:20;;;;;;;19.57;17.37;;;7.80;89.20;;;;;;5093884;28;20473;-72
2022/05/03 01:46:52;;;;;;;14.37;12.87;;;7.80;89.80;;;;;;5093619;28;20720;-74
2022/05/03 01:52:42;;;;;;;16.80;13.53;;;7.80;88.90;;;;;;5055437;28;20479;-72
2022/05/03 01:55:27;;;;;;;16.23;14.00;;;7.70;88.40;;;;;;5084660;28;21002;-73
2022/05/03 01:58:04;;;;;;;15.27;12.80;;;7.70;88.50;;;;;;5085603;28;20475;-74
2022/05/03 02:00:36;;;;;;;16.20;13.63;;;7.60;88.80;;;;;;5093946;28;20676;-73
2022/05/03 02:03:08;;;;;;;18.33;12.20;;;7.60;88.80;;;;;;5081793;28;20885;-72
2022/05/03 02:05:49;;;;;;;15.47;13.40;;;7.60;88.60;;;;;;5094562;28;20517;-73
2022/05/03 02:08:20;;;;;;;18.07;14.90;;;7.60;88.40;;;;;;5052756;28;20519;-73
2022/05/03 02:10:57;;;;;;;20.20;16.67;;;7.40;88.70;;;;;;5092430;28;20485;-72
2022/05/03 02:16:45;;;;;;;14.73;13.17;;;7.30;89.50;;;;;;5095333;28;20534;-73
2022/05/03 02:19:34;;;;;;;21.40;15.13;;;7.30;89.60;;;;;;5088785;28;20463;-73
2022/05/03 02:22:11;;;;;;;14.60;12.43;;;7.30;89.40;;;;;;5096264;28;20484;-74
2022/05/03 02:24:46;;;;;;;15.20;13.60;;;7.30;89.20;;;;;;5095498;28;20487;-73
2022/05/03 02:27:13;;;;;;;18.20;14.53;;;7.30;88.90;;;;;;5092875;28;20478;-73
2022/05/03 02:29:46;;;;;;;15.17;13.67;;;7.30;88.90;;;;;;5090125;28;20575;-72
2022/05/03 02:32:18;;;;;;;14.83;13.23;;;7.20;88.90;;;;;;5089162;28;20982;-73
2022/05/03 02:34:49;;;;;;;17.20;13.47;;;7.20;88.60;;;;;;5058090;28;20844;-73
2022/05/03 02:37:17;;;;;;;16.63;13.63;;;7.30;88.60;;;;;;5084005;28;21121;-73
2022/05/03 02:39:53;;;;;;;18.27;15.67;;;7.20;88.40;;;;;;5089859;28;20484;-73
2022/05/03 02:42:21;;;;;;;17.53;14.83;;;7.20;88.60;;;;;;5087523;28;20530;-72
2022/05/03 02:44:49;;;;;;;19.23;14.43;;;7.20;88.30;;;;;;5100195;28;20491;-73
2022/05/03 02:47:29;;;;;;;19.23;15.80;;;7.20;88.30;;;;;;5089896;28;20476;-73
2022/05/03 02:50:04;;;;;;;16.03;14.43;;;7.20;88.00;;;;;;5098872;28;20478;-73
2022/05/03 02:52:43;;;;;;;19.00;15.53;;;7.20;87.70;;;;;;5091476;28;20805;-73
2022/05/03 02:55:19;;;;;;;14.10;12.47;;;7.20;88.00;;;;;;5090692;28;20493;-73
2022/05/03 02:57:53;;;;;;;15.47;13.93;;;7.30;88.40;;;;;;5068891;28;20482;-73
2022/05/03 03:03:22;;;;;;;15.80;14.20;;;7.20;87.90;;;;;;5097387;28;20896;-74
2022/05/03 03:05:57;;;;;;;16.50;13.80;;;7.20;88.10;;;;;;5067451;28;20896;-73
2022/05/03 03:08:24;;;;;;;19.97;13.90;;;7.20;88.40;;;;;;5084186;28;20472;-74
2022/05/03 03:10:53;;;;;;;17.13;14.23;;;7.10;88.10;;;;;;5090727;28;20926;-72
2022/05/03 03:13:31;;;;;;;28.20;15.30;;;7.10;87.80;;;;;;5093673;28;20894;-72
2022/05/03 03:15:58;;;;;;;18.63;13.00;;;7.00;87.80;;;;;;5090657;28;20485;-72
2022/05/03 03:18:29;;;;;;;17.73;14.33;;;6.80;88.10;;;;;;5071519;28;20484;-72
2022/05/03 03:20:58;;;;;;;13.63;12.17;;;6.70;88.50;;;;;;5096477;28;20474;-74
2022/05/03 03:23:28;;;;;;;15.90;14.17;;;6.70;88.60;;;;;;5081971;28;20537;-72
2022/05/03 03:25:56;;;;;;;15.07;13.50;;;6.60;88.70;;;;;;5096739;28;20523;-71
2022/05/03 03:28:23;;;;;;;17.47;13.90;;;6.50;88.70;;;;;;5074266;28;20475;-72
2022/05/03 03:30:52;;;;;;;19.43;16.53;;;6.40;89.20;;;;;;5081858;28;20501;-72
2022/05/03 03:33:20;;;;;;;20.57;15.97;;;6.30;90.10;;;;;;5090223;28;20553;-72
2022/05/03 03:35:49;;;;;;;22.60;15.57;;;6.20;91.00;;;;;;5090648;28;20473;-73
2022/05/03 03:38:16;;;;;;;17.33;14.40;;;6.10;91.30;;;;;;5085707;28;20478;-72
2022/05/03 03:40:45;;;;;;;22.30;15.10;;;6.20;91.50;;;;;;5087464;28;20495;-73
2022/05/03 03:43:13;;;;;;;23.37;16.50;;;6.20;91.40;;;;;;5070452;28;20476;-72
2022/05/03 03:45:40;;;;;;;20.10;14.60;;;6.30;91.00;;;;;;5089659;28;20603;-72
2022/05/03 03:48:08;;;;;;;19.03;14.40;;;6.40;90.80;;;;;;5073017;28;20523;-72
2022/05/03 03:50:37;;;;;;;19.47;15.40;;;6.50;90.40;;;;;;5084774;28;20485;-72
2022/05/03 03:53:06;;;;;;;18.63;15.00;;;6.50;90.00;;;;;;5095996;28;20551;-72
2022/05/03 03:55:34;;;;;;;18.00;14.37;;;6.50;89.50;;;;;;5084145;28;20477;-72
2022/05/03 03:58:02;;;;;;;15.57;13.90;;;6.40;89.30;;;;;;5079643;28;20569;-73
2022/05/03 04:00:29;;;;;;;13.43;12.00;;;6.40;89.10;;;;;;5087397;28;20466;-73
2022/05/03 04:02:56;;;;;;;18.57;14.27;;;6.40;89.30;;;;;;5071774;28;20860;-72
2022/05/03 04:05:24;;;;;;;17.37;13.43;;;6.40;89.20;;;;;;5074815;28;20487;-72
2022/05/03 04:07:52;;;;;;;14.50;12.87;;;6.40;89.10;;;;;;5059341;28;20496;-72
2022/05/03 04:10:21;;;;;;;16.87;14.87;;;6.20;89.50;;;;;;5080723;28;20490;-72
2022/05/03 04:12:49;;;;;;;20.80;14.30;;;6.10;90.00;;;;;;5090008;28;20947;-73
2022/05/03 04:15:16;;;;;;;22.40;14.17;;;6.10;89.90;;;;;;5088553;28;20481;-72
2022/05/03 04:17:44;;;;;;;15.57;13.63;;;6.10;90.10;;;;;;5083767;28;20507;-72
2022/05/03 04:20:12;;;;;;;14.30;12.77;;;6.10;90.20;;;;;;5081535;28;20486;-73
2022/05/03 04:22:38;;;;;;;17.60;12.93;;;6.20;90.10;;;;;;5085602;28;20483;-72
2022/05/03 04:25:06;;;;;;;18.77;13.23;;;6.20;90.10;;;;;;5078097;28;20482;-73
2022/05/03 04:27:34;;;;;;;15.53;13.13;;;6.30;90.00;;;;;;5081604;28;20483;-73
2022/05/03 04:30:02;;;;;;;17.07;14.07;;;6.30;89.90;;;;;;5087743;28;20492;-73
2022/05/03 04:32:30;;;;;;;20.23;14.90;;;6.30;90.00;;;;;;5082167;28;20492;-72
2022/05/03 04:34:58;;;;;;;17.03;14.20;;;6.40;90.00;;;;;;5092589;28;20577;-73
2022/05/03 04:37:24;;;;;;;21.87;14.50;;;6.40;89.90;;;;;;5085860;28;20500;-72
2022/05/03 04:39:51;;;;;;;17.87;15.33;;;6.50;90.00;;;;;;5084984;28;20509;-72
2022/05/03 04:42:18;;;;;;;17.37;15.07;;;6.40;90.50;;;;;;5079548;28;20535;-71
2022/05/03 04:44:46;;;;;;;15.53;12.90;;;6.30;90.60;;;;;;5084200;28;20486;-72
2022/05/03 04:47:14;;;;;;;15.87;14.10;;;6.30;90.20;;;;;;5079027;28;20479;-73
2022/05/03 04:49:41;;;;;;;18.10;14.03;;;6.20;90.10;;;;;;5081229;28;21084;-72
2022/05/03 04:52:08;;;;;;;21.90;15.33;;;6.20;90.00;;;;;;5094698;28;20888;-73
2022/05/03 04:54:36;;;;;;;19.37;16.00;;;6.30;90.20;;;;;;5092475;28;20996;-72
2022/05/03 04:57:05;;;;;;;18.87;15.50;;;6.30;90.40;;;;;;5079407;28;20586;-73
2022/05/03 04:59:32;;;;;;;16.77;14.57;;;6.40;90.50;;;;;;5078856;28;21344;-72
2022/05/03 05:02:04;;;;;;;14.43;12.90;;;6.40;90.50;;;;;;5092157;28;20470;-73
2022/05/03 05:04:31;;;;;;;18.53;14.60;;;6.50;90.40;;;;;;5095373;28;20506;-72
2022/05/03 05:06:58;;;;;;;20.53;15.77;;;6.50;90.30;;;;;;5084668;28;20492;-72
2022/05/03 05:09:25;;;;;;;18.37;14.33;;;6.50;90.50;;;;;;5086841;28;20488;-73
2022/05/03 05:11:51;;;;;;;18.00;14.63;;;6.60;90.50;;;;;;5086368;28;20483;-72
2022/05/03 05:14:20;;;;;;;19.80;15.67;;;6.70;90.50;;;;;;5086309;28;20486;-73
2022/05/03 05:16:48;;;;;;;16.87;14.23;;;6.80;90.80;;;;;;5087754;28;20532;-72
2022/05/03 05:19:16;;;;;;;18.77;15.40;;;6.90;90.90;;;;;;5085118;28;20480;-73
2022/05/03 05:21:48;;;;;;;21.37;16.47;;;6.90;91.00;;;;;;5089266;28;20494;-72
2022/05/03 05:24:15;;;;;;;17.67;15.83;;;7.00;91.20;;;;;;5094376;28;20463;-73
2022/05/03 05:26:42;;;;;;;22.17;17.30;;;7.00;91.60;;;;;;5092895;28;20476;-72
2022/05/03 05:29:09;;;;;;;26.13;18.67;;;6.90;91.70;;;;;;5083365;28;20541;-73
2022/05/03 05:31:36;;;;;;;21.73;17.93;;;7.00;92.20;;;;;;5084090;28;20538;-72
2022/05/03 05:34:02;;;;;;;30.13;18.00;;;7.10;92.30;;;;;;5087759;28;21090;-72
2022/05/03 05:36:32;;;;;;;21.73;17.77;;;7.20;92.30;;;;;;5082840;28;20505;-72
2022/05/03 05:38:58;;;;;;;27.77;17.87;;;7.30;92.50;;;;;;5094575;28;20486;-72
2022/05/03 05:41:25;;;;;;;23.17;18.70;;;7.30;93.10;;;;;;5084122;28;20878;-72
2022/05/03 05:43:52;;;;;;;28.60;20.03;;;7.40;93.30;;;;;;5090973;28;20478;-73
2022/05/03 05:46:20;;;;;;;23.73;20.50;;;7.50;93.60;;;;;;5094458;28;20994;-72
2022/05/03 05:48:46;;;;;;;32.50;18.60;;;7.70;93.80;;;;;;5088594;28;20482;-72
2022/05/03 05:51:14;;;;;;;24.57;20.10;;;7.80;93.70;;;;;;5086544;28;20496;-73
2022/05/03 05:53:43;;;;;;;22.80;19.20;;;7.90;93.60;;;;;;5087529;28;21199;-72
2022/05/03 05:56:10;;;;;;;26.53;20.10;;;8.00;93.90;;;;;;5091735;28;20562;-72
2022/05/03 05:58:38;;;;;;;27.73;20.70;;;8.00;94.30;;;;;;5088129;28;20911;-72
2022/05/03 06:01:05;;;;;;;30.10;23.20;;;8.00;94.60;;;;;;5094540;28;21363;-72
2022/05/03 06:03:33;;;;;;;23.10;19.83;;;8.10;94.70;;;;;;5086703;28;20470;-72
2022/05/03 06:06:00;;;;;;;31.97;22.33;;;8.20;94.80;;;;;;5086900;28;20574;-71
2022/05/03 06:08:27;;;;;;;31.20;23.00;;;8.30;94.70;;;;;;5094468;28;20489;-71
2022/05/03 06:10:58;;;;;;;25.90;22.10;;;8.50;94.80;;;;;;5091157;28;20484;-72
2022/05/03 06:13:25;;;;;;;25.47;21.87;;;8.70;94.90;;;;;;5067743;28;20560;-72
2022/05/03 06:15:53;;;;;;;30.20;22.13;;;8.90;95.00;;;;;;5094650;28;20563;-72
2022/05/03 06:18:20;;;;;;;25.57;21.30;;;9.10;95.00;;;;;;5082798;28;20468;-73
2022/05/03 06:20:47;;;;;;;24.40;20.97;;;9.30;94.90;;;;;;5088200;28;20515;-73
2022/05/03 06:23:15;;;;;;;29.30;24.17;;;9.50;95.10;;;;;;5087938;28;20482;-73
2022/05/03 06:25:42;;;;;;;27.63;22.60;;;9.80;95.60;;;;;;5089159;28;20479;-73
2022/05/03 06:28:11;;;;;;;29.07;22.93;;;10.20;95.00;;;;;;5093253;28;20488;-72
2022/05/03 06:30:37;;;;;;;27.50;23.30;;;10.40;94.50;;;;;;5089263;28;20891;-73
2022/05/03 06:33:06;;;;;;;26.70;22.77;;;10.60;94.60;;;;;;5092821;28;20638;-73
2022/05/03 06:35:33;;;;;;;30.37;22.83;;;10.70;94.50;;;;;;5092884;28;20514;-72
2022/05/03 06:37:59;;;;;;;29.50;22.10;;;10.80;94.80;;;;;;5083851;28;20485;-73
2022/05/03 06:40:26;;;;;;;31.23;23.53;;;11.00;94.90;;;;;;5091104;28;20476;-74
2022/05/03 06:42:54;;;;;;;28.60;22.40;;;11.20;94.80;;;;;;5080788;28;20981;-74
2022/05/03 06:45:23;;;;;;;28.13;24.30;;;11.40;94.60;;;;;;5085098;28;21288;-73
2022/05/03 06:47:50;;;;;;;28.00;24.93;;;11.50;94.70;;;;;;5090032;28;20493;-73
2022/05/03 06:50:17;;;;;;;27.63;23.10;;;11.80;95.40;;;;;;5088060;28;20485;-73
2022/05/03 06:52:44;;;;;;;27.33;23.10;;;12.10;95.50;;;;;;5095283;28;20822;-74
2022/05/03 06:55:12;;;;;;;32.70;20.90;;;12.50;96.20;;;;;;5095492;28;20478;-71
2022/05/03 06:57:39;;;;;;;22.77;20.30;;;13.00;95.00;;;;;;5092112;28;20915;-71
2022/05/03 07:00:08;;;;;;;23.07;19.60;;;13.50;94.80;;;;;;5070304;28;20488;-72
2022/05/03 07:02:37;;;;;;;27.60;20.90;;;13.80;94.40;;;;;;5090770;28;20483;-72
2022/05/03 07:05:04;;;;;;;29.43;23.07;;;14.30;93.80;;;;;;5093131;28;20478;-75
2022/05/03 07:07:32;;;;;;;24.83;21.70;;;14.70;93.70;;;;;;5093760;28;21226;-72
2022/05/03 07:09:59;;;;;;;29.53;20.80;;;15.10;93.50;;;;;;5087731;28;20495;-72
2022/05/03 07:12:26;;;;;;;22.13;19.73;;;15.50;92.70;;;;;;5086846;28;20567;-72
2022/05/03 07:14:58;;;;;;;23.70;21.10;;;15.80;92.20;;;;;;5085727;28;20478;-73
2022/05/03 07:22:56;;;;;;;22.77;19.97;;;16.70;91.50;;;;;;5087266;28;20506;-74
2022/05/03 07:25:23;;;;;;;21.77;19.47;;;17.10;91.30;;;;;;5089602;28;20522;-72
2022/05/03 07:27:50;;;;;;;26.20;20.27;;;17.50;91.10;;;;;;5082090;28;20977;-74
2022/05/03 07:30:17;;;;;;;20.80;17.60;;;17.80;91.20;;;;;;5088881;28;20480;-73
2022/05/03 07:32:45;;;;;;;20.37;18.00;;;18.20;90.40;;;;;;5087581;28;20498;-75
2022/05/03 07:35:13;;;;;;;24.47;19.50;;;18.50;89.50;;;;;;5085838;28;20531;-73
2022/05/03 07:37:41;;;;;;;19.33;17.07;;;18.80;88.70;;;;;;5086670;28;20476;-73
2022/05/03 07:40:10;;;;;;;19.53;17.27;;;19.00;86.50;;;;;;5089616;28;20477;-76
2022/05/03 07:42:37;;;;;;;19.23;16.83;;;19.20;86.60;;;;;;5074268;28;20606;-73
2022/05/03 07:45:04;;;;;;;20.67;18.40;;;19.30;86.10;;;;;;5061455;28;20484;-73
2022/05/03 07:47:31;;;;;;;20.67;17.07;;;19.30;86.90;;;;;;5082747;28;20489;-73
2022/05/03 07:49:58;;;;;;;19.37;17.43;;;19.30;86.10;;;;;;5075543;28;20579;-74
2022/05/03 07:52:27;;;;;;;19.50;17.60;;;19.20;84.90;;;;;;5088941;28;20473;-75
2022/05/03 07:54:55;;;;;;;20.57;18.40;;;19.30;86.50;;;;;;5070934;28;20482;-74
2022/05/03 07:57:22;;;;;;;18.47;16.60;;;19.30;86.90;;;;;;5085523;28;20591;-73
2022/05/03 07:59:54;;;;;;;18.53;16.00;;;19.40;85.80;;;;;;5086109;28;20485;-74
2022/05/03 08:02:22;;;;;;;18.90;15.80;;;19.60;87.40;;;;;;5088469;28;20564;-75
2022/05/03 08:04:49;;;;;;;19.93;17.77;;;19.90;86.00;;;;;;5088450;28;20500;-74
2022/05/03 08:07:16;;;;;;;18.10;16.30;;;20.20;85.30;;;;;;5085347;28;20473;-76
2022/05/03 08:09:44;;;;;;;18.67;16.73;;;20.40;85.70;;;;;;5088891;28;20477;-74
2022/05/03 08:12:11;;;;;;;17.20;15.50;;;20.60;85.00;;;;;;5062298;28;21212;-74
2022/05/03 08:14:38;;;;;;;17.67;15.90;;;21.00;84.70;;;;;;5088315;28;20488;-73
2022/05/03 08:17:05;;;;;;;17.47;15.60;;;21.20;84.60;;;;;;5088761;28;20473;-74
2022/05/03 08:19:32;;;;;;;16.10;14.37;;;21.50;82.40;;;;;;5086192;28;21009;-76
2022/05/03 08:21:59;;;;;;;18.43;16.20;;;21.80;82.40;;;;;;5090981;28;20982;-75
2022/05/03 08:24:26;;;;;;;16.37;14.77;;;22.00;81.90;;;;;;5089906;28;20908;-72
2022/05/03 08:26:54;;;;;;;18.00;16.30;;;22.10;80.50;;;;;;5087711;28;20471;-75
2022/05/03 08:29:21;;;;;;;16.93;14.77;;;22.20;79.80;;;;;;5085791;28;20484;-73
2022/05/03 08:31:48;;;;;;;17.50;15.70;;;22.10;78.10;;;;;;5089867;28;20515;-74
2022/05/03 08:34:16;;;;;;;22.07;15.37;;;22.00;78.70;;;;;;5089306;28;20793;-72
2022/05/03 08:42:01;;;;;;;17.97;16.10;;;22.00;80.50;;;;;;5072861;28;20786;-73
2022/05/03 08:42:15;;;;;;;17.27;15.37;;;22.00;80.30;;;;;;5088755;28;20529;-74
2022/05/03 08:44:42;;;;;;;17.90;16.10;;;22.20;81.10;;;;;;5085946;28;20471;-75
2022/05/03 08:47:09;;;;;;;17.37;15.60;;;22.30;80.10;;;;;;5084645;28;20480;-76
2022/05/03 08:49:42;;;;;;;16.67;13.90;;;22.40;80.70;;;;;;5087455;28;20489;-75
2022/05/03 08:52:10;;;;;;;19.70;15.07;;;22.60;79.10;;;;;;5089916;28;20865;-75
2022/05/03 08:54:37;;;;;;;16.47;14.93;;;22.70;78.50;;;;;;5086913;28;20483;-75
2022/05/03 08:57:06;;;;;;;17.10;15.00;;;22.70;79.00;;;;;;5084961;28;20773;-76
2022/05/03 08:59:36;;;;;;;19.70;13.43;;;22.80;78.30;;;;;;5086025;28;20480;-76
2022/05/03 09:02:04;;;;;;;17.03;15.10;;;22.90;78.60;;;;;;5072969;28;20657;-74
2022/05/03 09:04:31;;;;;;;18.13;14.10;;;23.00;79.50;;;;;;5070178;28;22171;-76
2022/05/03 09:06:57;;;;;;;15.53;13.67;;;23.40;80.10;;;;;;5060532;28;20494;-72
2022/05/03 09:09:24;;;;;;;15.83;14.00;;;23.30;75.00;;;;;;5073168;28;20633;-76
2022/05/03 09:11:53;;;;;;;15.07;13.23;;;23.20;77.60;;;;;;5075270;28;20549;-74
2022/05/03 09:17:39;;;;;;;14.80;13.30;;;23.20;76.70;;;;;;5062254;27;20563;-49
2022/05/03 09:25:50;;;;;;;13.60;12.30;;;24.20;77.40;;;;;;5061839;27;20585;-50
2022/05/03 09:28:20;;;;;;;14.40;12.90;;;24.50;75.10;;;;;;5053130;27;20485;-50
2022/05/03 09:30:50;;;;;;;13.40;12.20;;;24.70;75.50;;;;;;5058975;27;20604;-50
2022/05/03 09:33:19;;;;;;;14.77;13.33;;;24.70;74.20;;;;;;5062953;27;20483;-51
2022/05/03 09:35:47;;;;;;;14.37;12.97;;;24.80;75.00;;;;;;5062082;27;20488;-50
2022/05/03 09:38:13;;;;;;;13.53;11.50;;;24.90;76.00;;;;;;5050388;27;20486;-50
2022/05/03 09:40:42;;;;;;;16.60;11.50;;;25.00;72.10;;;;;;5056321;27;20478;-51
2022/05/03 09:43:09;;;;;;;13.27;12.00;;;25.10;74.40;;;;;;5058248;27;20912;-50
2022/05/03 09:45:37;;;;;;;13.63;10.70;;;25.30;75.10;;;;;;5055421;27;21035;-50
2022/05/03 09:48:04;;;;;;;11.90;10.70;;;25.30;71.90;;;;;;5054758;27;20876;-50
2022/05/03 09:50:40;;;;;;;12.43;11.27;;;25.40;73.00;;;;;;5057983;27;20526;-50
2022/05/03 09:53:12;;;;;;;12.77;11.63;;;25.60;73.40;;;;;;5080996;27;20459;-50
2022/05/03 09:55:40;;;;;;;13.70;11.53;;;25.70;72.00;;;;;;5077613;27;20475;-50
2022/05/03 09:58:10;;;;;;;11.77;10.63;;;25.70;71.90;;;;;;5062938;27;20483;-49
2022/05/03 10:00:40;;;;;;;12.93;11.77;;;25.70;70.40;;;;;;5060343;27;20476;-49
2022/05/03 10:03:09;;;;;;;12.50;11.40;;;25.70;71.90;;;;;;5067459;27;20480;-51
2022/05/03 10:05:38;;;;;;;14.90;12.10;;;25.80;70.50;;;;;;5073671;27;21353;-49
2022/05/03 10:08:06;;;;;;;12.50;11.03;;;25.90;72.30;;;;;;5047002;27;20983;-49
2022/05/03 10:10:33;;;;;;;15.63;12.57;;;25.90;69.80;;;;;;5089430;27;21382;-49
2022/05/03 10:13:00;;;;;;;12.40;11.20;;;25.90;72.30;;;;;;5063495;27;20495;-49
2022/05/03 10:21:04;;;;;;;13.27;12.03;;;25.80;71.40;;;;;;5044144;27;20509;-49
2022/05/03 10:23:33;;;;;;;12.17;10.97;;;25.90;70.60;;;;;;5052678;27;20565;-48
2022/05/03 10:26:01;;;;;;;13.27;11.97;;;26.00;71.20;;;;;;5057520;27;20817;-48
2022/05/03 10:29:04;;;;;;;11.70;10.50;;;26.10;71.80;;;;;;5031040;28;20967;-49
2022/05/03 10:31:32;;;;;;;12.73;11.17;;;26.20;71.00;;;;;;5043460;28;20453;-49
2022/05/03 10:34:02;;;;;;;12.60;11.33;;;26.30;70.40;;;;;;5033342;28;20493;-49
2022/05/03 10:36:44;;;;;;;12.07;10.77;;;26.40;70.20;;;;;;5041117;28;20696;-49
2022/05/03 10:39:22;;;;;;;12.03;10.17;;;26.50;69.90;;;;;;5053938;28;20578;-49
2022/05/03 10:41:56;;;;;;;13.47;11.50;;;26.60;69.10;;;;;;5049106;28;20931;-49
2022/05/03 10:44:39;;;;;;;15.07;12.80;;;26.60;70.30;;;;;;5047393;28;20823;-49
2022/05/03 10:47:06;;;;;;;13.50;12.10;;;26.50;66.90;;;;;;5023406;28;20487;-49
2022/05/03 10:49:33;;;;;;;13.57;12.17;;;26.60;69.70;;;;;;5044720;28;21067;-49
2022/05/03 10:52:14;;;;;;;12.80;11.07;;;26.60;67.90;;;;;;5042887;28;20467;-49
2022/05/03 10:55:05;;;;;;;12.50;11.20;;;26.60;68.60;;;;;;5039759;28;20446;-49
2022/05/03 10:57:32;;;;;;;11.53;10.50;;;26.60;69.60;;;;;;5037086;28;21197;-49
2022/05/03 10:59:59;;;;;;;12.80;11.43;;;26.40;69.70;;;;;;5070152;28;20461;-49
2022/05/03 11:02:26;;;;;;;11.03;10.03;;;26.30;69.40;;;;;;5046976;28;20479;-49
2022/05/03 11:05:12;;;;;;;12.73;11.43;;;26.20;70.50;;;;;;5047702;28;20457;-49
2022/05/03 11:07:40;;;;;;;12.03;10.60;;;26.10;69.20;;;;;;5028215;28;20520;-49
2022/05/03 11:10:39;;;;;;;12.37;11.10;;;25.90;70.00;;;;;;5048613;28;20457;-49
2022/05/03 11:13:06;;;;;;;11.83;10.00;;;25.70;69.20;;;;;;5036946;28;20484;-50
2022/05/03 11:15:32;;;;;;;11.13;10.00;;;25.50;69.80;;;;;;5045808;28;20486;-49
2022/05/03 11:18:01;;;;;;;10.63;9.53;;;25.60;68.60;;;;;;5031540;28;20823;-49
2022/05/03 11:20:27;;;;;;;11.07;10.07;;;25.70;67.30;;;;;;5042236;28;20490;-49
2022/05/03 11:22:55;;;;;;;13.77;11.97;;;25.80;67.20;;;;;;5047166;28;20824;-49
2022/05/03 11:25:24;;;;;;;11.70;10.10;;;26.00;69.60;;;;;;5063262;28;20454;-50
2022/05/03 11:27:52;;;;;;;12.90;10.07;;;26.20;68.60;;;;;;5036471;28;20475;-49
2022/05/03 11:30:19;;;;;;;11.97;10.10;;;26.20;67.20;;;;;;5061843;28;20592;-50
2022/05/03 11:32:46;;;;;;;11.70;9.37;;;26.30;66.90;;;;;;5041266;28;20581;-49
2022/05/03 11:35:15;;;;;;;15.83;10.80;;;26.40;66.90;;;;;;5044790;28;20482;-50
2022/05/03 11:37:47;;;;;;;10.73;9.80;;;26.50;68.00;;;;;;5035978;28;20475;-51
2022/05/03 11:40:16;;;;;;;10.63;9.53;;;26.50;65.60;;;;;;5045103;28;20474;-49
2022/05/03 11:42:45;;;;;;;10.80;8.60;;;26.50;66.90;;;;;;5043756;28;20457;-49
2022/05/03 11:45:13;;;;;;;11.60;9.63;;;26.70;65.30;;;;;;5042591;28;20558;-50
2022/05/03 11:47:42;;;;;;;11.07;10.07;;;26.90;66.30;;;;;;5029094;28;21174;-50
2022/05/03 11:50:12;;;;;;;11.80;10.60;;;27.00;65.00;;;;;;5031724;28;20542;-50
2022/05/03 11:58:12;;;;;;;10.33;9.27;;;27.40;65.10;;;;;;5031036;28;20495;-50
2022/05/03 12:00:46;;;;;;;11.20;10.17;;;27.30;65.90;;;;;;5023092;28;21010;-49
2022/05/03 12:03:13;;;;;;;10.00;9.10;;;27.30;65.00;;;;;;5067866;28;20458;-50
2022/05/03 12:05:40;;;;;;;11.60;10.47;;;27.30;64.40;;;;;;5024941;28;20446;-49
2022/05/03 12:08:19;;;;;;;10.53;9.67;;;26.80;63.40;;;;;;5020690;28;20558;-49
2022/05/03 12:10:49;;;;;;;10.37;9.37;;;26.60;63.10;;;;;;5039145;28;20490;-49
2022/05/03 12:13:18;;;;;;;11.43;9.77;;;26.20;64.30;;;;;;5020347;28;21260;-49
2022/05/03 12:15:47;;;;;;;11.50;10.30;;;26.00;65.60;;;;;;5014863;28;21539;-49
2022/05/03 12:18:16;;;;;;;10.90;9.70;;;25.70;66.50;;;;;;5019190;28;20455;-50
2022/05/03 12:20:46;;;;;;;10.27;9.27;;;25.50;67.10;;;;;;4995019;28;20473;-50
2022/05/03 12:23:17;;;;;;;11.20;9.63;;;25.30;66.00;;;;;;5023225;28;20887;-50
2022/05/03 12:25:45;;;;;;;11.10;10.07;;;25.00;65.70;;;;;;5045697;28;20543;-50
2022/05/03 12:28:13;;;;;;;10.30;9.40;;;25.10;69.40;;;;;;5052261;28;20475;-50
2022/05/03 12:30:40;;;;;;;10.80;9.90;;;25.20;71.00;;;;;;5036527;28;20486;-50
2022/05/03 12:33:08;;;;;;;14.10;10.17;;;25.00;69.20;;;;;;5022562;28;20449;-51
2022/05/03 12:35:36;;;;;;;15.47;10.60;;;24.80;68.80;;;;;;5044327;28;20453;-51
2022/05/03 12:38:11;;;;;;;10.63;9.10;;;24.50;68.50;;;;;;5038990;28;20460;-51
2022/05/03 12:40:45;;;;;;;7.80;7.10;;;24.30;67.10;;;;;;5041917;28;20500;-51
2022/05/03 12:43:23;;;;;;;10.50;8.67;;;24.00;69.50;;;;;;5045385;28;20871;-50
2022/05/03 12:46:01;;;;;;;6.70;6.20;;;23.70;68.20;;;;;;5043670;28;20620;-48
2022/05/03 12:48:28;;;;;;;6.87;6.27;;;23.50;67.80;;;;;;5038058;28;21058;-49
2022/05/03 12:50:56;;;;;;;11.33;6.10;;;23.40;69.50;;;;;;5043029;28;21339;-49
2022/05/03 12:53:27;;;;;;;8.27;6.53;;;23.30;68.10;;;;;;5042113;28;20569;-49
2022/05/03 12:55:55;;;;;;;6.97;6.33;;;23.30;68.70;;;;;;5043211;28;20465;-48
2022/05/03 12:58:22;;;;;;;8.47;7.40;;;23.10;68.40;;;;;;5040209;28;20509;-49
2022/05/03 13:00:50;;;;;;;9.50;8.77;;;23.40;68.50;;;;;;5040580;28;20499;-48
2022/05/03 13:03:17;;;;;;;9.10;8.00;;;23.60;70.20;;;;;;5042878;28;20489;-49
2022/05/03 13:05:44;;;;;;;9.67;5.80;;;24.00;72.60;;;;;;5044281;28;20458;-48
2022/05/03 13:08:11;;;;;;;5.17;4.77;;;23.80;67.80;;;;;;5037762;28;20459;-49
2022/05/03 13:10:39;;;;;;;4.57;4.07;;;23.10;67.40;;;;;;5063287;28;20505;-48
2022/05/03 13:13:06;;;;;;;4.20;3.80;;;22.80;68.90;;;;;;5045896;28;20542;-49
2022/05/03 13:15:34;;;;;;;6.07;5.57;;;22.10;67.90;;;;;;5042452;28;20989;-48
2022/05/03 13:18:01;;;;;;;8.77;5.93;;;21.90;70.70;;;;;;5034362;28;20467;-49
2022/05/03 13:20:28;;;;;;;6.87;6.37;;;21.50;71.60;;;;;;5044929;28;20452;-50
2022/05/03 13:22:55;;;;;;;6.87;6.37;;;21.10;73.40;;;;;;5055062;28;20453;-49
2022/05/03 13:25:23;;;;;;;6.93;6.43;;;20.90;74.80;;;;;;5054447;28;20462;-49